KBWI/BWI METAR and TAF weather

Enter ICAO airport designator
Station Type Date Time Source
KBWI METAR 2021/10/24 20:54 UTC NOAA

KBWI 242054Z 12010KT 10SM FEW040 FEW070 SCT250 19/09 A3009 RMK AO2 SLP189 T01890089 56015 $


Station Type Date Time Source
KBWI Decoded METAR 2021/10/24 20:54 UTC NOAA

BALTIMORE-WASHINGTON INTERNATIONAL , MD, United States (KBWI) 39-10N 076-41W 59M
Oct 24, 2021 - 04:54 PM EDT / 2021.10.24 2054 UTC
Wind: from the ESE (120 degrees) at 12 MPH (10 KT):0
Visibility: 10 mile(s):0
Sky conditions: partly cloudy
Temperature: 66.0 F (18.9 C)
Dew Point: 48.0 F (8.9 C)
Relative Humidity: 52%
Pressure (altimeter): 30.09 in. Hg (1018 hPa)
Pressure tendency: 0.04 inches (1.5 hPa) lower than three hours ago
ob: KBWI 242054Z 12010KT 10SM FEW040 FEW070 SCT250 19/09 A3009 RMK AO2 SLP189 T01890089 56015
cycle: 21

Station Type Date Time Source
KBWI TAF 2021/10/24 21:04 UTC NOAA

TAF
AMD KBWI 242102Z 2421/2524 12008KT P6SM FEW020 SCT090
FM250300 19006KT P6SM SCT120 BKN250 WS020/21035KT
FM251300 20007KT P6SM FEW110 SCT200
FM251500 20010G20KT P6SM SCT110 BKN200
FM252100 17008KT P6SM VCSH SCT030 BKN200

Example: see airport list